Time;durP1;ratioP1;P1;durP2;ratioP2;P2;SDS_P1;SDS_P2;PMS_P1;PMS_P2;Temp;Humidity;BMP_temperature;BMP_pressure;BME280_temperature;BME280_humidity;BME280_pressure;Samples;Min_cycle;Max_cycle;Signal;HPM_P1;HPM_P2
2022/06/26 00:04:49;;;;;;;2.80;1.10;;;22.00;34.70;;;;;;20952810;28;20186;-64
2022/06/26 00:14:50;;;;;;;3.85;1.20;;;21.90;33.70;;;;;;20920238;28;20379;-64
2022/06/26 00:24:52;;;;;;;1.83;0.77;;;21.80;33.40;;;;;;20920222;28;20504;-66
2022/06/26 00:34:54;;;;;;;2.25;1.00;;;21.70;32.90;;;;;;20951020;28;20048;-68
2022/06/26 00:44:56;;;;;;;3.83;0.90;;;22.20;31.50;;;;;;20918354;28;20485;-65
2022/06/26 00:54:58;;;;;;;3.83;1.10;;;21.60;32.70;;;;;;20917134;28;20085;-68
2022/06/26 01:05:00;;;;;;;2.85;1.00;;;21.50;33.00;;;;;;20919683;28;20053;-63
2022/06/26 01:15:06;;;;;;;2.53;1.00;;;21.40;33.20;;;;;;20918461;28;20049;-68
2022/06/26 01:25:10;;;;;;;5.43;1.35;;;21.40;33.30;;;;;;20914134;28;20065;-67
2022/06/26 01:35:16;;;;;;;3.17;1.17;;;21.50;33.50;;;;;;20915512;28;20045;-64
2022/06/26 01:45:23;;;;;;;4.03;1.10;;;21.60;33.60;;;;;;20915061;28;20049;-63
2022/06/26 01:55:30;;;;;;;2.92;0.88;;;21.80;33.40;;;;;;20913960;28;20093;-64
2022/06/26 02:05:50;;;;;;;2.70;1.25;;;22.00;33.40;;;;;;20914261;28;20044;-63
2022/06/26 02:15:59;;;;;;;;;;;22.20;33.30;;;;;;20912997;28;20049;-64
2022/06/26 02:26:21;;;;;;;2.88;1.20;;;21.40;34.30;;;;;;20911554;28;20366;-63
2022/06/26 02:36:33;;;;;;;4.75;1.30;;;21.30;34.50;;;;;;20917220;28;20060;-64
2022/06/26 02:46:50;;;;;;;7.20;1.10;;;22.20;33.80;;;;;;20927331;28;20148;-64
2022/06/26 02:57:06;;;;;;;3.45;1.00;;;21.30;35.00;;;;;;20926930;28;20056;-66
2022/06/26 03:07:22;;;;;;;4.35;1.05;;;21.30;35.40;;;;;;20926368;28;20049;-65
2022/06/26 03:17:38;;;;;;;2.75;1.00;;;20.90;35.80;;;;;;20924673;28;20041;-67
2022/06/26 03:27:50;;;;;;;3.78;1.23;;;20.80;36.00;;;;;;20925271;28;20128;-66
2022/06/26 03:37:55;;;;;;;5.68;0.85;;;20.70;36.00;;;;;;20923081;28;20061;-63
2022/06/26 03:48:01;;;;;;;2.00;0.75;;;20.80;36.00;;;;;;20954029;28;20053;-65
2022/06/26 03:58:06;;;;;;;2.47;1.00;;;20.70;36.10;;;;;;20937909;28;20091;-64
2022/06/26 04:08:10;;;;;;;4.05;1.33;;;20.70;36.30;;;;;;20920856;28;20107;-63
2022/06/26 04:18:12;;;;;;;6.65;1.38;;;20.60;36.50;;;;;;20922122;28;20059;-65
2022/06/26 04:28:16;;;;;;;3.22;1.50;;;20.60;36.60;;;;;;20918173;28;20087;-67
2022/06/26 04:38:19;;;;;;;3.38;1.20;;;20.50;36.60;;;;;;20919329;28;20056;-67
2022/06/26 04:48:24;;;;;;;4.60;1.17;;;20.50;36.60;;;;;;20918029;28;20049;-66
2022/06/26 04:58:26;;;;;;;4.97;1.10;;;20.50;36.60;;;;;;20916739;28;20049;-66
2022/06/26 05:08:29;;;;;;;4.03;1.30;;;20.40;36.60;;;;;;20948750;28;20106;-64
2022/06/26 05:18:32;;;;;;;5.32;1.10;;;20.40;36.70;;;;;;20952899;28;20053;-66
2022/06/26 05:28:34;;;;;;;2.67;1.25;;;20.30;37.00;;;;;;20914789;28;20048;-65
2022/06/26 05:38:38;;;;;;;4.57;1.65;;;20.40;36.90;;;;;;20915138;28;20453;-67
2022/06/26 05:48:41;;;;;;;4.32;1.35;;;20.50;37.00;;;;;;20913615;28;20486;-67
2022/06/26 05:58:42;;;;;;;4.88;1.30;;;20.60;37.00;;;;;;20912246;28;20079;-68
2022/06/26 06:08:44;;;;;;;4.05;1.45;;;20.70;36.60;;;;;;20911503;28;20045;-64
2022/06/26 06:18:47;;;;;;;5.80;1.88;;;21.00;36.60;;;;;;20911900;28;20057;-68
2022/06/26 06:28:49;;;;;;;5.15;1.80;;;21.30;36.40;;;;;;20911273;28;20448;-66
2022/06/26 06:38:51;;;;;;;7.80;1.45;;;21.40;36.50;;;;;;20910933;28;20076;-67
2022/06/26 06:48:54;;;;;;;11.55;1.70;;;21.40;36.30;;;;;;20910462;28;20052;-67
2022/06/26 06:58:56;;;;;;;12.73;2.80;;;21.80;36.30;;;;;;20911206;28;20079;-63
2022/06/26 07:08:59;;;;;;;17.38;2.60;;;22.20;36.00;;;;;;20910729;28;20084;-66
2022/06/26 07:19:02;;;;;;;1.27;0.90;;;23.00;35.00;;;;;;20909856;28;20052;-64
2022/06/26 07:29:06;;;;;;;3.67;1.23;;;23.40;34.20;;;;;;20928345;28;20497;-65
2022/06/26 07:39:12;;;;;;;6.07;1.10;;;23.50;34.10;;;;;;20925800;28;20049;-66
2022/06/26 07:49:15;;;;;;;4.30;1.37;;;23.70;33.60;;;;;;20922463;28;20516;-68
2022/06/26 07:59:19;;;;;;;3.97;1.15;;;24.20;33.00;;;;;;20921818;28;20045;-66
2022/06/26 08:09:22;;;;;;;5.00;0.88;;;24.80;32.20;;;;;;20919392;28;20048;-66
2022/06/26 08:19:24;;;;;;;4.10;1.30;;;25.30;31.70;;;;;;20920611;28;20517;-67
2022/06/26 08:29:27;;;;;;;6.63;1.73;;;25.70;31.20;;;;;;20919827;28;20140;-66
2022/06/26 08:39:34;;;;;;;1.90;0.85;;;26.20;30.80;;;;;;20919164;28;20443;-66
2022/06/26 08:49:37;;;;;;;2.60;1.30;;;26.30;30.50;;;;;;20920147;28;20049;-65
2022/06/26 08:59:40;;;;;;;3.10;1.25;;;26.30;30.70;;;;;;20917959;28;20052;-65
2022/06/26 09:09:42;;;;;;;2.95;0.98;;;26.70;30.10;;;;;;20916367;28;20508;-66
2022/06/26 09:19:43;;;;;;;3.10;1.08;;;26.90;30.00;;;;;;20913417;28;20057;-64
2022/06/26 09:29:54;;;;;;;4.57;1.20;;;26.80;29.90;;;;;;20914460;28;20053;-65
2022/06/26 09:40:01;;;;;;;3.95;1.33;;;27.00;29.80;;;;;;20914472;28;20048;-64
2022/06/26 09:50:07;;;;;;;6.00;1.02;;;26.90;29.80;;;;;;20913221;28;20187;-64
2022/06/26 10:00:10;;;;;;;3.80;0.68;;;27.00;29.80;;;;;;20945182;28;20079;-63
2022/06/26 10:10:13;;;;;;;4.00;0.90;;;27.20;29.80;;;;;;20911633;28;20057;-70
2022/06/26 10:20:21;;;;;;;9.55;1.60;;;27.10;30.00;;;;;;20926022;28;20400;-64
2022/06/26 10:30:26;;;;;;;4.10;1.55;;;27.30;29.70;;;;;;20912881;28;20044;-63
2022/06/26 10:50:58;;;;;;;2.53;1.40;;;27.00;28.60;;;;;;20910948;28;20053;-65
2022/06/26 11:01:03;;;;;;;2.13;0.98;;;27.00;27.50;;;;;;20921474;28;20090;-65
2022/06/26 11:11:09;;;;;;;2.20;1.13;;;27.10;27.40;;;;;;20926660;28;20425;-64
2022/06/26 11:21:11;;;;;;;5.77;2.33;;;27.20;26.80;;;;;;20925208;28;20103;-65
2022/06/26 11:31:23;;;;;;;4.50;1.75;;;27.10;27.20;;;;;;20924296;28;20488;-66
2022/06/26 11:41:26;;;;;;;4.45;1.20;;;26.80;27.50;;;;;;20922501;28;20056;-63
2022/06/26 11:51:32;;;;;;;5.30;1.60;;;27.10;26.20;;;;;;20921336;28;20514;-65
2022/06/26 12:01:36;;;;;;;3.13;1.67;;;27.10;26.00;;;;;;20921769;28;20464;-65
2022/06/26 12:11:42;;;;;;;4.35;1.30;;;27.10;25.20;;;;;;20922219;28;20463;-65
2022/06/26 12:21:46;;;;;;;9.87;4.10;;;27.10;24.00;;;;;;20921334;28;20057;-65
2022/06/26 12:31:49;;;;;;;4.68;2.92;;;27.20;22.10;;;;;;20919488;28;20052;-66
2022/06/26 12:41:52;;;;;;;4.47;1.20;;;27.40;20.00;;;;;;20919652;28;20053;-66
2022/06/26 12:51:54;;;;;;;1.92;1.05;;;27.20;19.50;;;;;;20918113;28;20053;-66
2022/06/26 13:01:56;;;;;;;3.42;1.05;;;27.50;19.50;;;;;;20916214;28;20056;-66
2022/06/26 13:11:58;;;;;;;2.72;1.05;;;27.30;20.00;;;;;;20916585;28;20136;-66
2022/06/26 13:22:00;;;;;;;1.48;0.80;;;27.50;19.80;;;;;;20914225;28;20060;-67
2022/06/26 13:32:03;;;;;;;2.13;0.80;;;27.60;18.90;;;;;;20914172;28;20045;-64
2022/06/26 13:42:05;;;;;;;2.08;0.65;;;27.80;18.80;;;;;;20914306;28;20206;-64
2022/06/26 13:52:07;;;;;;;1.65;0.65;;;27.80;18.20;;;;;;20913036;28;20045;-66
2022/06/26 14:02:13;;;;;;;4.28;0.85;;;;;;;;;;20913350;28;20127;-65
2022/06/26 14:12:16;;;;;;;1.60;0.80;;;28.90;16.50;;;;;;20912719;28;20084;-64
2022/06/26 14:32:38;;;;;;;3.30;1.15;;;28.10;17.80;;;;;;20917660;28;20151;-66
2022/06/26 14:42:44;;;;;;;0.30;0.30;;;28.20;16.70;;;;;;20927222;28;20049;-66
2022/06/26 14:52:47;;;;;;;3.63;0.60;;;28.00;16.60;;;;;;20926102;28;20071;-65
2022/06/26 15:02:49;;;;;;;3.42;0.90;;;28.00;16.10;;;;;;20928235;28;20044;-65
2022/06/26 15:12:50;;;;;;;3.10;0.98;;;27.90;17.50;;;;;;20926822;28;20055;-65
2022/06/26 15:22:55;;;;;;;1.23;0.70;;;27.90;17.50;;;;;;20929087;28;20504;-68
2022/06/26 15:32:57;;;;;;;2.00;0.80;;;27.90;18.00;;;;;;20925268;28;20382;-66
2022/06/26 15:42:59;;;;;;;2.15;1.00;;;27.90;17.20;;;;;;20923011;28;20049;-66
2022/06/26 15:53:01;;;;;;;1.35;0.70;;;27.80;18.20;;;;;;20922831;28;20485;-65
2022/06/26 16:03:02;;;;;;;1.42;0.60;;;28.00;18.20;;;;;;20921987;28;20053;-65
2022/06/26 16:13:04;;;;;;;1.23;0.70;;;28.50;17.50;;;;;;20920230;28;20378;-64
2022/06/26 16:33:26;;;;;;;2.15;1.10;;;28.30;19.60;;;;;;20919905;28;20512;-63
2022/06/26 16:43:28;;;;;;;1.75;0.63;;;28.40;19.80;;;;;;20918036;28;20142;-65
2022/06/26 16:53:30;;;;;;;3.00;1.13;;;27.70;20.80;;;;;;20915663;28;20049;-63
2022/06/26 17:03:33;;;;;;;2.00;0.70;;;27.70;21.20;;;;;;20916693;28;20060;-64
2022/06/26 17:13:39;;;;;;;1.90;0.88;;;27.70;21.10;;;;;;20915380;28;20052;-66
2022/06/26 17:23:42;;;;;;;2.55;1.08;;;;;;;;;;20915532;28;20067;-66
2022/06/26 17:33:44;;;;;;;4.15;1.20;;;;;;;;;;20918053;28;20103;-64
2022/06/26 17:43:46;;;;;;;1.55;0.85;;;;;;;;;;20914612;28;20068;-65
2022/06/26 17:53:49;;;;;;;4.68;1.10;;;;;;;;;;20912916;28;20045;-67
2022/06/26 18:03:51;;;;;;;4.30;0.98;;;;;;;;;;20912248;28;20049;-66
2022/06/26 18:13:53;;;;;;;7.63;1.23;;;;;;;;;;20913208;28;20099;-65
2022/06/26 18:23:55;;;;;;;3.75;1.65;;;28.20;21.80;;;;;;20911317;28;20114;-65
2022/06/26 18:33:57;;;;;;;6.45;1.90;;;;;;;;;;20911697;28;20086;-65
2022/06/26 18:44:00;;;;;;;3.53;1.70;;;28.10;21.60;;;;;;20912973;28;20052;-66
2022/06/26 18:54:02;;;;;;;5.13;1.50;;;26.70;23.20;;;;;;20910287;28;20053;-66
2022/06/26 19:04:04;;;;;;;4.72;1.60;;;26.40;23.80;;;;;;20910368;28;20060;-65
2022/06/26 19:24:26;;;;;;;5.85;1.85;;;26.00;24.20;;;;;;20923323;28;20061;-66
2022/06/26 19:34:28;;;;;;;2.35;1.20;;;25.80;24.60;;;;;;20926183;28;20045;-68
2022/06/26 19:44:30;;;;;;;2.38;1.30;;;25.70;24.80;;;;;;20924168;28;20127;-64
2022/06/26 19:54:32;;;;;;;7.30;1.67;;;25.50;24.20;;;;;;20923204;28;20048;-68
2022/06/26 20:04:33;;;;;;;2.90;1.65;;;25.40;24.00;;;;;;20921907;28;20413;-64
2022/06/26 20:14:35;;;;;;;6.22;1.90;;;25.30;24.20;;;;;;20921512;28;20060;-65
2022/06/26 20:24:37;;;;;;;3.88;1.50;;;25.20;24.40;;;;;;20927144;28;20057;-65
2022/06/26 20:34:39;;;;;;;4.00;1.80;;;25.00;24.80;;;;;;20920213;28;20048;-68
2022/06/26 20:44:41;;;;;;;4.10;1.75;;;;;;;;;;20919649;28;20071;-69
2022/06/26 20:54:44;;;;;;;8.07;3.83;;;;;;;;;;20920618;28;20060;-67
2022/06/26 21:04:47;;;;;;;3.28;1.00;;;;;;;;;;20918926;28;20511;-65
2022/06/26 21:14:49;;;;;;;5.60;1.23;;;;;;;;;;20920015;28;20049;-65
2022/06/26 21:24:52;;;;;;;3.60;1.30;;;;;;;;;;20916183;28;20068;-65
2022/06/26 21:34:57;;;;;;;4.35;1.70;;;;;;;;;;20916053;28;20123;-64
2022/06/26 21:44:59;;;;;;;5.30;2.75;;;;;;;;;;20915632;28;20048;-65
2022/06/26 21:55:03;;;;;;;4.40;2.20;;;;;;;;;;20913605;28;20056;-65
2022/06/26 22:05:06;;;;;;;3.67;1.70;;;;;;;;;;20912130;28;20055;-66
2022/06/26 22:15:08;;;;;;;3.58;1.98;;;;;;;;;;20910458;28;20454;-65
2022/06/26 22:25:10;;;;;;;2.03;0.98;;;;;;;;;;20911487;28;20075;-65
2022/06/26 22:35:12;;;;;;;3.58;1.20;;;25.00;25.00;;;;;;20911139;28;20052;-65
2022/06/26 22:45:14;;;;;;;5.13;1.40;;;23.90;26.60;;;;;;20911254;28;20060;-65
2022/06/26 22:55:16;;;;;;;4.55;1.23;;;23.80;26.80;;;;;;20921677;28;20072;-66
2022/06/26 23:05:19;;;;;;;3.35;1.10;;;23.70;27.00;;;;;;20927719;28;20485;-66
2022/06/26 23:15:22;;;;;;;1.52;0.98;;;23.70;27.20;;;;;;20924457;28;20131;-67
2022/06/26 23:25:24;;;;;;;3.22;1.00;;;23.70;27.40;;;;;;20924696;28;20497;-63
2022/06/26 23:35:26;;;;;;;3.42;1.00;;;23.70;27.80;;;;;;20923884;28;20049;-63
2022/06/26 23:45:28;;;;;;;4.65;1.92;;;23.70;28.00;;;;;;20923659;28;20144;-64
2022/06/26 23:55:30;;;;;;;2.28;1.23;;;23.60;28.30;;;;;;20926277;28;20075;-63
